createdAt,value
2023-02-15T00:02:12.305Z,16.50
2023-02-15T00:04:49.331Z,17.20
2023-02-15T00:07:18.054Z,16.33
2023-02-15T00:09:47.611Z,15.63
2023-02-15T00:12:15.820Z,16.73
2023-02-15T00:14:44.039Z,16.20
2023-02-15T00:17:13.535Z,16.07
2023-02-15T00:19:41.958Z,14.93
2023-02-15T00:22:10.162Z,15.87
2023-02-15T00:24:38.317Z,16.63
2023-02-15T00:27:06.500Z,15.93
2023-02-15T00:29:34.736Z,15.70
2023-02-15T00:32:02.848Z,16.20
2023-02-15T00:34:32.344Z,15.27
2023-02-15T00:37:00.479Z,14.90
2023-02-15T00:39:29.863Z,15.27
2023-02-15T00:41:58.052Z,16.57
2023-02-15T00:44:26.201Z,15.63
2023-02-15T00:46:54.414Z,14.93
2023-02-15T00:49:22.678Z,15.03
2023-02-15T00:51:52.209Z,15.00
2023-02-15T00:54:20.357Z,14.10
2023-02-15T00:56:48.484Z,13.77
2023-02-15T00:59:16.619Z,14.50
2023-02-15T01:01:44.750Z,14.53
2023-02-15T01:04:12.976Z,14.87
2023-02-15T01:06:41.146Z,13.97
2023-02-15T01:09:10.677Z,16.30
2023-02-15T01:11:38.836Z,13.73
2023-02-15T01:14:07.131Z,14.70
2023-02-15T01:16:35.304Z,14.13
2023-02-15T01:19:04.442Z,14.07
2023-02-15T01:21:35.218Z,14.10
2023-02-15T01:24:03.393Z,15.03
2023-02-15T01:26:32.960Z,14.10
2023-02-15T01:29:01.090Z,14.17
2023-02-15T01:31:29.311Z,14.07
2023-02-15T01:33:57.550Z,13.47
2023-02-15T01:36:25.692Z,14.53
2023-02-15T01:38:53.833Z,14.63
2023-02-15T01:41:23.842Z,14.23
2023-02-15T01:43:54.455Z,13.90
2023-02-15T01:46:24.931Z,13.07
2023-02-15T01:48:55.604Z,13.90
2023-02-15T01:51:26.131Z,14.27
2023-02-15T01:53:56.498Z,13.63
2023-02-15T01:56:26.087Z,14.10
2023-02-15T01:58:58.670Z,14.10
2023-02-15T02:01:27.751Z,12.80
2023-02-15T02:04:00.330Z,12.83
2023-02-15T02:06:28.935Z,13.33
2023-02-15T02:08:57.440Z,13.57
2023-02-15T02:11:25.616Z,13.27
2023-02-15T02:13:54.148Z,13.00
2023-02-15T02:16:26.698Z,13.43
2023-02-15T02:19:02.197Z,12.17
2023-02-15T02:21:54.186Z,13.33
2023-02-15T02:24:40.252Z,14.03
2023-02-15T02:27:23.287Z,12.67
2023-02-15T02:30:06.744Z,12.80
2023-02-15T02:32:55.841Z,12.27
2023-02-15T02:35:28.219Z,13.87
2023-02-15T02:37:59.280Z,12.57
2023-02-15T02:40:30.085Z,13.40
2023-02-15T02:43:01.652Z,12.43
2023-02-15T02:45:33.003Z,12.60
2023-02-15T02:48:03.534Z,13.40
2023-02-15T02:50:33.128Z,12.07
2023-02-15T02:53:01.813Z,12.50
2023-02-15T02:55:31.808Z,12.23
2023-02-15T02:58:02.687Z,12.93
2023-02-15T03:00:33.837Z,12.80
2023-02-15T03:03:05.994Z,12.33
2023-02-15T03:05:36.676Z,12.57
2023-02-15T03:08:06.971Z,13.10
2023-02-15T03:10:37.062Z,12.70
2023-02-15T03:13:06.361Z,11.57
2023-02-15T03:15:51.750Z,12.47
2023-02-15T03:18:20.562Z,12.00
2023-02-15T03:20:50.595Z,11.63
2023-02-15T03:23:20.509Z,11.40
2023-02-15T03:25:51.264Z,10.80
2023-02-15T03:28:21.967Z,10.90
2023-02-15T03:30:54.048Z,11.87
2023-02-15T03:33:23.376Z,12.53
2023-02-15T03:35:58.187Z,11.70
2023-02-15T03:38:30.906Z,12.27
2023-02-15T03:41:13.680Z,11.40
2023-02-15T03:43:45.996Z,9.97
2023-02-15T03:46:20.558Z,10.53
2023-02-15T03:48:50.391Z,10.73
2023-02-15T03:51:37.300Z,10.10
2023-02-15T03:54:06.831Z,9.67
2023-02-15T03:56:36.713Z,10.13
2023-02-15T03:59:24.097Z,11.20
2023-02-15T04:02:00.376Z,9.30
2023-02-15T04:04:30.859Z,9.10
2023-02-15T04:07:00.357Z,9.10
2023-02-15T04:09:46.009Z,9.33
2023-02-15T04:12:14.489Z,9.53
2023-02-15T04:15:00.294Z,8.97
2023-02-15T04:17:28.481Z,9.40
2023-02-15T04:20:14.209Z,9.17
2023-02-15T04:23:01.619Z,9.30
2023-02-15T04:25:29.812Z,8.87
2023-02-15T04:27:57.954Z,8.37
2023-02-15T04:30:27.476Z,8.70
2023-02-15T04:32:56.056Z,7.87
2023-02-15T04:35:24.262Z,7.40
2023-02-15T04:37:53.797Z,7.50
2023-02-15T04:40:21.944Z,7.07
2023-02-15T04:42:50.800Z,7.00
2023-02-15T04:45:19.109Z,7.10
2023-02-15T04:47:47.355Z,7.03
2023-02-15T04:50:15.557Z,7.30
2023-02-15T04:52:43.710Z,6.33
2023-02-15T04:55:13.209Z,6.67
2023-02-15T04:57:41.335Z,8.07
2023-02-15T05:00:10.629Z,6.57
2023-02-15T05:02:38.817Z,5.87
2023-02-15T05:05:08.130Z,6.77
2023-02-15T05:07:36.272Z,6.57
2023-02-15T05:10:04.669Z,6.47
2023-02-15T05:12:34.268Z,6.20
2023-02-15T05:15:02.421Z,6.77
2023-02-15T05:17:30.582Z,5.73
2023-02-15T05:19:58.713Z,6.27
2023-02-15T05:22:26.855Z,6.23
2023-02-15T05:25:12.746Z,5.60
2023-02-15T05:28:00.108Z,6.37
2023-02-15T05:30:28.471Z,6.07
2023-02-15T05:32:56.759Z,6.13
2023-02-15T05:35:24.968Z,6.03
2023-02-15T05:37:53.137Z,5.97
2023-02-15T05:40:21.285Z,6.30
2023-02-15T05:42:50.765Z,6.30
2023-02-15T05:45:19.065Z,6.10
2023-02-15T05:47:47.230Z,5.30
2023-02-15T05:50:15.384Z,6.17
2023-02-15T05:52:43.502Z,5.60
2023-02-15T05:55:11.647Z,5.40
2023-02-15T05:57:39.847Z,5.70
2023-02-15T06:00:10.852Z,5.43
2023-02-15T06:02:39.513Z,5.30
2023-02-15T06:05:08.405Z,5.20
2023-02-15T06:07:36.558Z,5.87
2023-02-15T06:10:05.324Z,5.43
2023-02-15T06:12:33.463Z,5.40
2023-02-15T06:15:01.755Z,5.50
2023-02-15T06:17:31.376Z,5.20
2023-02-15T06:19:59.528Z,5.50
2023-02-15T06:22:27.737Z,5.33
2023-02-15T06:24:55.886Z,5.00
2023-02-15T06:27:24.014Z,5.50
2023-02-15T06:29:52.207Z,5.77
2023-02-15T06:32:20.364Z,5.27
2023-02-15T06:34:49.865Z,5.20
2023-02-15T06:37:18.010Z,5.70
2023-02-15T06:39:46.210Z,5.03
2023-02-15T06:42:14.379Z,5.73
2023-02-15T06:44:42.508Z,5.67
2023-02-15T06:47:11.597Z,5.80
2023-02-15T06:49:39.772Z,5.80
2023-02-15T06:52:09.305Z,5.50
2023-02-15T06:54:37.442Z,5.77
2023-02-15T06:57:05.616Z,5.50
2023-02-15T06:59:33.767Z,5.40
2023-02-15T07:02:01.910Z,5.90
2023-02-15T07:04:30.976Z,5.83
2023-02-15T07:06:59.202Z,6.00
2023-02-15T07:09:28.801Z,6.43
2023-02-15T07:12:14.636Z,6.23
2023-02-15T07:14:42.821Z,5.93
2023-02-15T07:17:27.480Z,5.53
2023-02-15T07:19:59.098Z,5.80
2023-02-15T07:22:27.254Z,6.07
2023-02-15T07:24:56.755Z,5.77
2023-02-15T07:27:24.883Z,6.07
2023-02-15T07:29:53.019Z,6.13
2023-02-15T07:32:21.210Z,6.20
2023-02-15T07:34:49.427Z,6.63
2023-02-15T07:37:17.596Z,6.10
2023-02-15T07:39:45.743Z,6.00
2023-02-15T07:42:15.246Z,6.17
2023-02-15T07:44:43.380Z,6.17
2023-02-15T07:47:11.522Z,6.10
2023-02-15T07:49:40.147Z,5.90
2023-02-15T07:52:08.370Z,5.57
2023-02-15T07:54:36.511Z,5.33
2023-02-15T07:57:04.669Z,5.97
2023-02-15T07:59:34.136Z,5.87
2023-02-15T08:02:02.268Z,6.50
2023-02-15T08:04:30.398Z,4.87
2023-02-15T08:06:58.550Z,5.47
2023-02-15T08:09:26.703Z,5.13
2023-02-15T08:11:54.873Z,5.43
2023-02-15T08:14:23.681Z,6.13
2023-02-15T08:16:54.178Z,6.60
2023-02-15T08:19:23.446Z,6.80
2023-02-15T08:21:52.326Z,7.07
2023-02-15T08:24:21.946Z,6.80
2023-02-15T08:26:50.516Z,6.87
2023-02-15T08:29:19.747Z,6.50
2023-02-15T08:31:48.335Z,7.23
2023-02-15T08:34:19.025Z,7.27
2023-02-15T08:36:47.200Z,7.50
2023-02-15T08:39:16.496Z,6.30
2023-02-15T08:41:45.561Z,6.93
2023-02-15T08:44:13.998Z,7.47
2023-02-15T08:46:43.022Z,6.93
2023-02-15T08:49:15.636Z,7.13
2023-02-15T08:51:45.326Z,8.43
2023-02-15T08:54:15.330Z,8.03
2023-02-15T08:56:44.181Z,7.33
2023-02-15T08:59:15.188Z,7.90
2023-02-15T09:01:43.455Z,8.10
2023-02-15T09:04:11.636Z,7.80
2023-02-15T09:06:40.238Z,7.77
2023-02-15T09:09:10.146Z,8.10
2023-02-15T09:11:39.181Z,7.93
2023-02-15T09:14:09.063Z,7.43
2023-02-15T09:16:38.322Z,7.70
2023-02-15T09:19:07.142Z,7.67
2023-02-15T09:21:35.922Z,8.43
2023-02-15T09:24:05.535Z,8.50
2023-02-15T09:26:37.565Z,8.43
2023-02-15T09:29:06.180Z,8.13
2023-02-15T09:31:35.579Z,8.00
2023-02-15T09:34:03.932Z,7.00
2023-02-15T09:36:35.022Z,8.53
2023-02-15T09:39:08.233Z,10.20
2023-02-15T09:41:57.006Z,9.60
2023-02-15T09:44:31.221Z,9.87
2023-02-15T09:47:06.545Z,9.43
2023-02-15T09:49:43.038Z,8.27
2023-02-15T09:52:29.617Z,9.40
2023-02-15T09:55:05.353Z,9.67
2023-02-15T09:57:37.221Z,9.40
2023-02-15T10:00:10.421Z,9.83
2023-02-15T10:02:44.601Z,9.43
2023-02-15T10:05:23.046Z,10.57
2023-02-15T10:08:05.276Z,10.60
2023-02-15T10:10:41.186Z,10.90
2023-02-15T10:13:15.529Z,10.33
2023-02-15T10:15:56.629Z,10.27
2023-02-15T10:18:36.597Z,9.83
2023-02-15T10:21:11.063Z,9.40
2023-02-15T10:23:53.108Z,9.17
2023-02-15T10:26:23.625Z,8.53
2023-02-15T10:28:52.616Z,9.47
2023-02-15T10:31:26.929Z,8.87
2023-02-15T10:33:59.716Z,8.33
2023-02-15T10:36:35.497Z,7.60
2023-02-15T10:39:08.575Z,8.67
2023-02-15T10:41:41.819Z,8.30
2023-02-15T10:44:17.483Z,7.70
2023-02-15T10:46:53.886Z,7.20
2023-02-15T10:49:28.857Z,6.70
2023-02-15T10:52:03.724Z,6.77
2023-02-15T10:54:35.449Z,7.00
2023-02-15T10:57:07.068Z,5.77
2023-02-15T10:59:41.541Z,6.17
2023-02-15T11:02:15.777Z,5.70
2023-02-15T11:04:48.210Z,5.93
2023-02-15T11:07:18.997Z,5.93
2023-02-15T11:09:49.265Z,5.73
2023-02-15T11:12:20.041Z,6.03
2023-02-15T11:14:52.095Z,5.53
2023-02-15T11:17:23.766Z,5.93
2023-02-15T11:19:56.860Z,6.33
2023-02-15T11:22:25.116Z,6.27
2023-02-15T11:24:55.352Z,6.73
2023-02-15T11:27:24.600Z,6.53
2023-02-15T11:29:57.870Z,6.23
2023-02-15T11:32:28.929Z,6.07
2023-02-15T11:34:58.660Z,6.10
2023-02-15T11:37:30.449Z,6.03
2023-02-15T11:39:58.600Z,6.47
2023-02-15T11:42:28.045Z,5.87
2023-02-15T11:45:01.803Z,6.30
2023-02-15T11:47:31.281Z,6.47
2023-02-15T11:49:59.501Z,6.67
2023-02-15T11:52:27.678Z,7.23
2023-02-15T11:54:56.052Z,6.73
2023-02-15T11:57:26.902Z,7.03
2023-02-15T11:59:57.973Z,7.37
2023-02-15T12:02:28.462Z,6.90
2023-02-15T12:04:59.493Z,7.77
2023-02-15T12:07:29.504Z,8.03
2023-02-15T12:10:02.272Z,8.93
2023-02-15T12:12:31.288Z,8.90
2023-02-15T12:15:00.041Z,9.27
2023-02-15T12:17:29.476Z,9.53
2023-02-15T12:20:00.242Z,9.17
2023-02-15T12:22:30.163Z,8.10
2023-02-15T12:24:59.190Z,8.60
2023-02-15T12:27:28.108Z,8.37
2023-02-15T12:29:58.196Z,8.23
2023-02-15T12:32:27.346Z,7.27
2023-02-15T12:35:01.063Z,6.97
2023-02-15T12:37:32.850Z,7.53
2023-02-15T12:40:02.094Z,7.03
2023-02-15T12:42:31.398Z,7.67
2023-02-15T12:45:00.889Z,7.70
2023-02-15T12:47:30.282Z,7.50
2023-02-15T12:50:17.799Z,7.73
2023-02-15T12:52:49.383Z,7.73
2023-02-15T12:55:22.320Z,8.90
2023-02-15T12:57:51.407Z,8.47
2023-02-15T13:00:32.602Z,8.20
2023-02-15T13:03:02.618Z,7.83
2023-02-15T13:05:33.647Z,8.23
2023-02-15T13:08:04.146Z,8.07
2023-02-15T13:10:34.157Z,8.33
2023-02-15T13:13:03.913Z,7.33
2023-02-15T13:15:35.605Z,8.07
2023-02-15T13:18:04.562Z,7.93
2023-02-15T13:20:32.788Z,7.17
2023-02-15T13:23:06.032Z,7.80
2023-02-15T13:25:40.304Z,8.20
2023-02-15T13:28:09.706Z,7.57
2023-02-15T13:30:39.574Z,8.37
2023-02-15T13:33:09.436Z,8.77
2023-02-15T13:35:40.949Z,8.00
2023-02-15T13:38:18.190Z,8.77
2023-02-15T13:40:51.338Z,9.63
2023-02-15T13:43:28.558Z,9.10
2023-02-15T13:46:02.225Z,8.10
2023-02-15T13:48:46.897Z,9.10
2023-02-15T13:51:22.582Z,8.33
2023-02-15T13:54:05.056Z,9.53
2023-02-15T13:56:38.970Z,10.40
2023-02-15T13:59:18.772Z,11.23
2023-02-15T14:01:48.419Z,11.63
2023-02-15T14:04:23.119Z,10.63
2023-02-15T14:06:59.332Z,10.77
2023-02-15T14:09:34.529Z,10.53
2023-02-15T14:12:12.389Z,10.57
2023-02-15T14:14:54.992Z,9.83
2023-02-15T14:17:26.017Z,11.00
2023-02-15T14:19:56.356Z,9.97
2023-02-15T14:22:32.822Z,9.73
2023-02-15T14:25:18.046Z,11.70
2023-02-15T14:27:48.936Z,13.63
2023-02-15T14:30:19.910Z,13.20
2023-02-15T14:32:49.624Z,13.17
2023-02-15T14:35:18.483Z,13.57
2023-02-15T14:37:49.302Z,13.37
2023-02-15T14:40:43.896Z,14.03
2023-02-15T14:43:14.379Z,13.83
2023-02-15T14:45:44.615Z,13.33
2023-02-15T14:48:14.972Z,12.03
2023-02-15T14:50:45.240Z,12.93
2023-02-15T14:53:25.158Z,13.03
2023-02-15T14:56:09.143Z,12.83
2023-02-15T14:58:38.952Z,11.33
2023-02-15T15:01:09.896Z,12.17
2023-02-15T15:03:39.223Z,12.30
2023-02-15T15:06:08.325Z,12.57
2023-02-15T15:08:37.721Z,13.10
2023-02-15T15:11:42.115Z,13.43
2023-02-15T15:14:14.438Z,11.83
2023-02-15T15:16:50.733Z,12.67
2023-02-15T15:19:50.875Z,13.00
2023-02-15T15:22:20.966Z,13.37
2023-02-15T15:24:50.006Z,12.63
2023-02-15T15:27:37.077Z,13.40
2023-02-15T15:30:27.389Z,13.07
2023-02-15T15:33:00.741Z,12.90
2023-02-15T15:35:30.761Z,13.33
2023-02-15T15:38:16.631Z,13.37
2023-02-15T15:40:55.322Z,12.73
2023-02-15T15:43:53.489Z,14.27
2023-02-15T15:46:36.014Z,14.47
2023-02-15T15:49:09.110Z,13.70
2023-02-15T15:51:41.738Z,13.93
2023-02-15T15:54:15.406Z,13.87
2023-02-15T15:56:45.945Z,13.80
2023-02-15T15:59:15.865Z,13.57
2023-02-15T16:01:45.202Z,14.80
2023-02-15T16:04:15.649Z,13.17
2023-02-15T16:06:45.756Z,13.73
2023-02-15T16:09:19.867Z,13.17
2023-02-15T16:11:49.203Z,13.47
2023-02-15T16:14:18.795Z,12.40
2023-02-15T16:16:52.629Z,12.57
2023-02-15T16:19:23.863Z,11.73
2023-02-15T16:21:52.351Z,11.63
2023-02-15T16:24:37.144Z,11.33
2023-02-15T16:27:22.961Z,12.27
2023-02-15T16:29:51.158Z,11.77
2023-02-15T16:32:20.647Z,12.47
2023-02-15T16:34:57.304Z,11.93
2023-02-15T16:37:28.012Z,12.33
2023-02-15T16:39:56.978Z,13.43
2023-02-15T16:42:25.428Z,13.67
2023-02-15T16:44:54.592Z,14.13
2023-02-15T16:47:25.255Z,13.90
2023-02-15T16:49:55.097Z,13.17
2023-02-15T16:52:26.010Z,14.03
2023-02-15T16:54:56.578Z,15.70
2023-02-15T16:57:27.290Z,14.00
2023-02-15T16:59:58.169Z,15.00
2023-02-15T17:02:53.124Z,13.80
2023-02-15T17:05:20.875Z,13.63
2023-02-15T17:07:54.831Z,13.60
2023-02-15T17:10:30.795Z,13.63
2023-02-15T17:13:03.493Z,12.97
2023-02-15T17:15:32.982Z,13.50
2023-02-15T17:18:02.153Z,12.97
2023-02-15T17:20:33.384Z,12.63
2023-02-15T17:23:04.025Z,12.60
2023-02-15T17:25:37.628Z,12.10
2023-02-15T17:28:06.248Z,13.20
2023-02-15T17:30:35.765Z,12.93
2023-02-15T17:33:05.145Z,13.57
2023-02-15T17:35:34.660Z,12.50
2023-02-15T17:38:05.910Z,13.10
2023-02-15T17:40:34.932Z,12.07
2023-02-15T17:43:03.296Z,12.93
2023-02-15T17:45:35.894Z,12.43
2023-02-15T17:48:05.466Z,12.03
2023-02-15T17:50:34.268Z,12.47
2023-02-15T17:53:03.023Z,12.60
2023-02-15T17:55:41.216Z,13.57
2023-02-15T17:58:10.279Z,13.40
2023-02-15T18:00:57.752Z,14.10
2023-02-15T18:03:44.210Z,13.90
2023-02-15T18:06:32.929Z,13.13
2023-02-15T18:09:19.038Z,13.63
2023-02-15T18:11:50.547Z,13.03
2023-02-15T18:14:18.712Z,13.10
2023-02-15T18:16:47.142Z,14.20
2023-02-15T18:19:17.856Z,14.57
2023-02-15T18:21:46.335Z,13.77
2023-02-15T18:24:16.842Z,14.53
2023-02-15T18:26:45.035Z,13.67
2023-02-15T18:29:14.679Z,13.73
2023-02-15T18:31:43.466Z,14.73
2023-02-15T18:34:14.658Z,14.93
2023-02-15T18:36:45.878Z,15.00
2023-02-15T18:39:24.678Z,16.00
2023-02-15T18:41:52.847Z,15.63
2023-02-15T18:44:22.375Z,15.90
2023-02-15T18:46:50.513Z,16.00
2023-02-15T18:49:18.695Z,15.07
2023-02-15T18:51:46.920Z,14.07
2023-02-15T18:54:18.687Z,15.77
2023-02-15T18:56:47.155Z,15.73
2023-02-15T18:59:17.361Z,14.77
2023-02-15T19:01:46.974Z,15.03
2023-02-15T19:04:15.137Z,14.50
2023-02-15T19:06:46.220Z,15.80
2023-02-15T19:09:15.799Z,16.87
2023-02-15T19:11:43.961Z,16.47
2023-02-15T19:14:22.194Z,15.93
2023-02-15T19:16:51.742Z,15.80
2023-02-15T19:19:19.955Z,15.70
2023-02-15T19:21:48.223Z,15.97
2023-02-15T19:24:18.595Z,15.70
2023-02-15T19:26:47.487Z,15.43
2023-02-15T19:29:17.801Z,15.07
2023-02-15T19:31:46.070Z,15.83
2023-02-15T19:34:17.038Z,15.77
2023-02-15T19:36:45.718Z,15.67
2023-02-15T19:39:22.961Z,14.37
2023-02-15T19:41:51.333Z,15.47
2023-02-15T19:44:19.466Z,15.10
2023-02-15T19:46:47.683Z,14.80
2023-02-15T19:49:17.213Z,15.17
2023-02-15T19:51:45.472Z,14.27
2023-02-15T19:54:22.679Z,14.37
2023-02-15T19:56:50.804Z,13.87
2023-02-15T19:59:24.555Z,14.40
2023-02-15T20:01:52.918Z,14.50
2023-02-15T20:04:22.614Z,14.53
2023-02-15T20:06:51.904Z,15.27
2023-02-15T20:09:23.431Z,13.97
2023-02-15T20:11:52.170Z,15.60
2023-02-15T20:14:20.417Z,15.80
2023-02-15T20:16:48.587Z,15.27
2023-02-15T20:19:16.827Z,14.43
2023-02-15T20:21:51.592Z,15.83
2023-02-15T20:24:20.889Z,14.53
2023-02-15T20:26:49.037Z,14.90
2023-02-15T20:29:18.477Z,14.07
2023-02-15T20:31:47.149Z,15.23
2023-02-15T20:34:15.383Z,13.93
2023-02-15T20:36:43.625Z,14.33
2023-02-15T20:39:16.410Z,14.57
2023-02-15T20:41:48.119Z,14.17
2023-02-15T20:44:21.100Z,14.33
2023-02-15T20:46:49.475Z,14.53
2023-02-15T20:49:17.788Z,13.47
2023-02-15T20:51:47.343Z,14.27
2023-02-15T20:54:18.689Z,13.43
2023-02-15T20:56:47.197Z,14.37
2023-02-15T20:59:20.713Z,14.90
2023-02-15T21:01:49.047Z,13.40
2023-02-15T21:04:19.174Z,15.83
2023-02-15T21:06:47.582Z,15.10
2023-02-15T21:09:17.645Z,14.37
2023-02-15T21:11:46.188Z,14.90
2023-02-15T21:14:18.454Z,14.50
2023-02-15T21:16:47.277Z,14.63
2023-02-15T21:19:16.061Z,13.67
2023-02-15T21:21:44.654Z,14.13
2023-02-15T21:24:20.293Z,14.20
2023-02-15T21:26:48.819Z,14.23
2023-02-15T21:29:17.717Z,13.93
2023-02-15T21:31:46.093Z,14.40
2023-02-15T21:34:14.698Z,13.40
2023-02-15T21:36:43.688Z,13.37
2023-02-15T21:39:16.200Z,14.07
2023-02-15T21:42:05.170Z,13.10
2023-02-15T21:44:51.101Z,13.67
2023-02-15T21:47:37.920Z,13.50
2023-02-15T21:50:27.243Z,14.17
2023-02-15T21:52:54.580Z,12.83
2023-02-15T21:55:22.813Z,13.17
2023-02-15T21:57:52.382Z,14.63
2023-02-15T22:00:21.491Z,13.60
2023-02-15T22:02:50.908Z,13.50
2023-02-15T22:05:20.559Z,15.03
2023-02-15T22:07:48.891Z,13.80
2023-02-15T22:10:17.290Z,13.10
2023-02-15T22:12:45.899Z,13.97
2023-02-15T22:15:20.992Z,13.20
2023-02-15T22:17:49.379Z,13.90
2023-02-15T22:20:18.803Z,13.57
2023-02-15T22:22:47.292Z,13.57
2023-02-15T22:25:15.931Z,14.00
2023-02-15T22:27:44.657Z,13.57
2023-02-15T22:30:21.417Z,13.70
2023-02-15T22:32:49.608Z,14.07
2023-02-15T22:35:18.969Z,13.90
2023-02-15T22:37:47.104Z,13.50
2023-02-15T22:40:16.424Z,14.37
2023-02-15T22:42:47.227Z,13.80
2023-02-15T22:45:18.021Z,14.20
2023-02-15T22:47:48.696Z,13.30
2023-02-15T22:50:18.931Z,14.47
2023-02-15T22:52:47.193Z,14.37
2023-02-15T22:55:16.788Z,13.40
2023-02-15T22:57:45.346Z,13.83
2023-02-15T23:00:17.221Z,15.60
2023-02-15T23:02:45.631Z,14.83
2023-02-15T23:05:22.576Z,14.53
2023-02-15T23:07:51.103Z,14.40
2023-02-15T23:10:23.166Z,14.90
2023-02-15T23:13:09.433Z,14.10
2023-02-15T23:15:37.631Z,14.07
2023-02-15T23:18:13.319Z,14.87
2023-02-15T23:20:44.294Z,14.40
2023-02-15T23:23:12.893Z,14.70
2023-02-15T23:25:41.325Z,14.87
2023-02-15T23:28:15.719Z,14.63
2023-02-15T23:30:43.872Z,15.20
2023-02-15T23:33:13.141Z,14.80
2023-02-15T23:35:42.881Z,13.77
2023-02-15T23:38:19.432Z,14.40
2023-02-15T23:41:07.706Z,15.17
2023-02-15T23:43:36.144Z,14.50
2023-02-15T23:46:05.151Z,13.60
2023-02-15T23:48:35.731Z,14.70
2023-02-15T23:51:05.709Z,14.47
2023-02-15T23:53:34.446Z,14.37
2023-02-15T23:56:03.074Z,13.27
2023-02-15T23:58:38.056Z,12.97
